WetterOnline ( https://www.wetteronline.de )

Wetter aktuell Ostende

Aktuelles Wetter: Oostende Airport (5m)

6-stündlich | Neueste Meldungen
Ortszeit Temperatur Wetter
Mo, 22.07. 14:00 21.0° C bewölkt
Mo, 22.07. 8:00 15.8° C fast wolkenlos
Mo, 22.07. 2:00 16.3° C bewölkt
So, 21.07. 20:00 18.7° C bewölkt
So, 21.07. 14:00 22.0° C bewölkt
So, 21.07. 8:00 18.6° C bewölkt
So, 21.07. 2:00 19.1° C wolkig
Sa, 20.07. 20:00 22.2° C leicht bewölkt
Ortszeit Temperatur Wetter
Mo, 22.07. 18:00 20.5° C bewölkt
Mo, 22.07. 17:00 21.1° C wolkig
Mo, 22.07. 16:00 21.9° C wolkig
Mo, 22.07. 15:00 21.6° C wolkig
Mo, 22.07. 14:00 21.0° C bewölkt
Mo, 22.07. 13:00 20.9° C wolkig
Mo, 22.07. 12:00 20.4° C leicht bewölkt
Ortszeit Relative Feuchte Sichtweite
Mo, 22.07. 14:00 69% 25 km
Mo, 22.07. 8:00 94% 15 km
Mo, 22.07. 2:00 91% 20 km
So, 21.07. 20:00 85% 30 km
So, 21.07. 14:00 76% 30 km
So, 21.07. 8:00 90% 30 km
So, 21.07. 2:00 93% 15 km
Sa, 20.07. 20:00 73% 25 km
Ortszeit Relative Feuchte Sichtweite
Mo, 22.07. 18:00 75% 25 km
Mo, 22.07. 17:00 71% 25 km
Mo, 22.07. 16:00 69% 25 km
Mo, 22.07. 15:00 70% 25 km
Mo, 22.07. 14:00 69% 25 km
Mo, 22.07. 13:00 64% 25 km
Mo, 22.07. 12:00 66% 25 km
Ortszeit Niederschlagsmenge Niederschlagsart
Mo, 22.07. 14:00 0.0 l/m2 in 6 Std. -
Mo, 22.07. 8:00 0.0 l/m2 in 12 Std. -
Mo, 22.07. 2:00 0.0 l/m2 in 6 Std. -
So, 21.07. 20:00 0.0 l/m2 in 12 Std. -
So, 21.07. 14:00 0.0 l/m2 in 6 Std. -
So, 21.07. 8:00 0.6 l/m2 in 12 Std. -
So, 21.07. 2:00 0.6 l/m2 in 6 Std. Gewitter, Schauer
Sa, 20.07. 20:00 0.0 l/m2 in 12 Std. -
Ortszeit Niederschlagsmenge Niederschlagsart
Mo, 22.07. 18:00 keine Meldung -
Mo, 22.07. 17:00 keine Meldung -
Mo, 22.07. 16:00 keine Meldung -
Mo, 22.07. 15:00 keine Meldung -
Mo, 22.07. 14:00 keine Meldung -
Mo, 22.07. 13:00 keine Meldung -
Mo, 22.07. 12:00 keine Meldung -
Ortszeit Stärke Spitze Richtung
km/h Bft. km/h Grad Sektor
Mo, 22.07. 14:00 22 4 - 220° SW
Mo, 22.07. 8:00 7 2 - 210° SW
Mo, 22.07. 2:00 7 2 - 210° SW
So, 21.07. 20:00 7 2 32 340° N
So, 21.07. 14:00 14 3 - 290° W
So, 21.07. 8:00 22 4 - 300° NW
So, 21.07. 2:00 11 2 - 290° W
Sa, 20.07. 20:00 7 2 22 20° N
Ortszeit Stärke Spitze Richtung
km/h Bft. km/h Grad Sektor
Mo, 22.07. 18:00 22 4 40 220° SW
Mo, 22.07. 17:00 25 4 40 240° SW
Mo, 22.07. 16:00 22 4 40 230° SW
Mo, 22.07. 15:00 22 4 36 220° SW
Mo, 22.07. 14:00 22 4 - 220° SW
Mo, 22.07. 13:00 22 4 29 220° SW
Mo, 22.07. 12:00 18 3 32 250° W
Ortszeit Untergrenze Bedeckung Gattung
total tief tief mittel hoch
Mo, 22.07. 14:00 - 7/8 2/8 Cu - -
Mo, 22.07. 8:00 - 1/8 1/8 Sc - -
Mo, 22.07. 2:00 - 7/8 5/8 Sc - -
So, 21.07. 20:00 270 m 7/8 7/8 Cu - -
So, 21.07. 14:00 - 7/8 2/8 Cu - -
So, 21.07. 8:00 - 7/8 1/8 Sc - -
So, 21.07. 2:00 - 5/8 1/8 Cu - -
Sa, 20.07. 20:00 3600 m 3/8 1/8 - Ac Ci
Ortszeit Bedeckungsgrad in Achtel und Wolkenuntergrenze
Mo, 22.07. 18:00 2(660m) 6(900m)
Mo, 22.07. 17:00 2(750m) 5(960m)
Mo, 22.07. 16:00 2(750m) 5(1050m)
Mo, 22.07. 15:00 3(750m) 4(1200m)
Mo, 22.07. 14:00 7
Mo, 22.07. 13:00 2(900m) 3(1500m)
Mo, 22.07. 12:00 2(810m) 3(1050m)
Ortszeit Luftdruck NN (hPa) Tendenz (hPa in 3 Std.)
Mo, 22.07. 14:00 1018 + 0,3
Mo, 22.07. 8:00 1017 + 1,0
Mo, 22.07. 2:00 1015 + 1,0
So, 21.07. 20:00 1013 + 1,1
So, 21.07. 14:00 1011 + 1,1
So, 21.07. 8:00 1008 + 0,7
So, 21.07. 2:00 1007 - 0,1
Sa, 20.07. 20:00 1007 - 1,7
Ortszeit Luftdruck NN (hPa) Tendenz (hPa in 3 Std.)
Mo, 22.07. 18:00 1018 + 0,1
Mo, 22.07. 17:00 1018 - 0,1
Mo, 22.07. 16:00 1018 - 0,2
Mo, 22.07. 15:00 1018 0,0
Mo, 22.07. 14:00 1018 + 0,3
Mo, 22.07. 13:00 1018 + 0,6
Mo, 22.07. 12:00 1018 + 1,1
Ortszeit Schneehöhe (cm)
Mo, 22.07. 14:00 -
Mo, 22.07. 8:00 -
Mo, 22.07. 2:00 -
So, 21.07. 20:00 -
So, 21.07. 14:00 -
So, 21.07. 8:00 -
So, 21.07. 2:00 -
Sa, 20.07. 20:00 -
Ortszeit Schneehöhe (cm)
Mo, 22.07. 18:00 -
Mo, 22.07. 17:00 -
Mo, 22.07. 16:00 -
Mo, 22.07. 15:00 -
Mo, 22.07. 14:00 -
Mo, 22.07. 13:00 -
Mo, 22.07. 12:00 -
Link zu dieser Seite / Seite empfehlen

Das Wetter in ...